Time;durP1;ratioP1;P1;durP2;ratioP2;P2;SDS_P1;SDS_P2;PMS_P1;PMS_P2;Temp;Humidity;BMP_temperature;BMP_pressure;BME280_temperature;BME280_humidity;BME280_pressure;Samples;Min_cycle;Max_cycle;Signal;HPM_P1;HPM_P2
2023/12/13 00:00:40;;;;;;;1.27;0.55;;;8.90;99.90;;;;;;5012674;28;20099;-75
2023/12/13 00:03:06;;;;;;;0.88;0.43;;;8.90;99.90;;;;;;5015556;28;20539;-75
2023/12/13 00:05:34;;;;;;;0.88;0.40;;;8.90;99.90;;;;;;5014276;28;20138;-75
2023/12/13 00:08:01;;;;;;;1.42;0.40;;;8.90;99.90;;;;;;5017096;28;20475;-75
2023/12/13 00:10:28;;;;;;;0.32;0.32;;;8.90;90.80;;;;;;5015490;28;20056;-75
2023/12/13 00:12:55;;;;;;;0.40;0.40;;;8.90;1.00;;;;;;5013529;28;20494;-75
2023/12/13 00:15:23;;;;;;;0.50;0.30;;;9.00;1.00;;;;;;5010622;28;20096;-75
2023/12/13 00:17:50;;;;;;;0.55;0.40;;;9.00;1.00;;;;;;5016474;28;20049;-76
2023/12/13 00:20:17;;;;;;;2.03;0.55;;;9.00;1.00;;;;;;5017321;28;20053;-76
2023/12/13 00:22:43;;;;;;;0.77;0.60;;;9.00;1.00;;;;;;5015188;28;20439;-76
2023/12/13 00:25:11;;;;;;;1.27;0.60;;;9.00;1.00;;;;;;5010394;28;20077;-76
2023/12/13 00:27:37;;;;;;;1.13;0.50;;;9.00;1.00;;;;;;5009374;28;20385;-76
2023/12/13 00:30:05;;;;;;;0.63;0.32;;;9.00;1.00;;;;;;5012000;28;20111;-76
2023/12/13 00:32:32;;;;;;;0.75;0.40;;;9.00;1.00;;;;;;5017651;28;20046;-76
2023/12/13 00:34:59;;;;;;;2.40;0.60;;;9.10;1.00;;;;;;4996623;28;20057;-76
2023/12/13 00:37:25;;;;;;;0.88;0.47;;;9.10;99.90;;;;;;5023632;28;20049;-76
2023/12/13 00:39:52;;;;;;;1.38;0.40;;;9.10;1.00;;;;;;5015102;28;20276;-76
2023/12/13 00:42:19;;;;;;;1.95;0.40;;;9.10;1.00;;;;;;5022111;28;20128;-76
2023/12/13 00:44:46;;;;;;;0.88;0.40;;;9.10;1.00;;;;;;5014789;28;20049;-76
2023/12/13 00:47:13;;;;;;;0.88;0.30;;;9.10;1.00;;;;;;5006636;28;20049;-76
2023/12/13 00:49:40;;;;;;;0.50;0.35;;;9.00;99.90;;;;;;5023596;28;20049;-76
2023/12/13 00:52:07;;;;;;;1.00;0.60;;;9.10;99.90;;;;;;5020530;28;20136;-75
2023/12/13 00:54:34;;;;;;;0.57;0.40;;;9.00;1.00;;;;;;5005974;28;20056;-76
2023/12/13 00:57:01;;;;;;;0.82;0.75;;;9.00;1.00;;;;;;5019137;28;20061;-76
2023/12/13 00:59:27;;;;;;;0.75;0.43;;;8.90;99.90;;;;;;5022602;28;20049;-76
2023/12/13 01:01:54;;;;;;;1.75;0.85;;;8.90;84.80;;;;;;5021455;28;20151;-76
2023/12/13 01:04:21;;;;;;;0.50;0.45;;;8.90;99.90;;;;;;5001076;28;20058;-75
2023/12/13 01:06:48;;;;;;;0.60;0.40;;;8.80;1.00;;;;;;5005872;28;20129;-75
2023/12/13 01:09:15;;;;;;;1.33;0.60;;;8.80;99.90;;;;;;5023466;28;20133;-76
2023/12/13 01:11:41;;;;;;;1.35;0.73;;;8.80;1.00;;;;;;5022893;28;20049;-76
2023/12/13 01:14:08;;;;;;;0.57;0.50;;;8.70;99.90;;;;;;5013739;28;20602;-76
2023/12/13 01:16:35;;;;;;;1.60;0.60;;;8.80;99.90;;;;;;5021227;28;20053;-76
2023/12/13 01:19:02;;;;;;;1.67;0.70;;;8.80;99.90;;;;;;5013428;28;20468;-75
2023/12/13 01:21:29;;;;;;;1.77;0.70;;;8.80;99.90;;;;;;5008540;28;20368;-76
2023/12/13 01:23:56;;;;;;;1.17;0.80;;;8.70;99.90;;;;;;5009745;28;20073;-76
2023/12/13 01:26:23;;;;;;;0.77;0.55;;;8.70;99.90;;;;;;5020193;28;20463;-75
2023/12/13 01:28:50;;;;;;;1.15;0.77;;;8.80;99.90;;;;;;4977697;28;20064;-75
2023/12/13 01:31:17;;;;;;;1.55;1.05;;;8.70;99.90;;;;;;5017160;28;20108;-75
2023/12/13 01:33:44;;;;;;;2.10;1.17;;;8.70;99.90;;;;;;4992869;28;20145;-75
2023/12/13 01:36:11;;;;;;;3.63;1.20;;;8.70;99.90;;;;;;5004888;28;20226;-76
2023/12/13 01:38:38;;;;;;;2.03;1.00;;;8.70;84.20;;;;;;5017990;28;20499;-75
2023/12/13 01:41:05;;;;;;;2.35;1.13;;;8.70;99.90;;;;;;5023179;28;20041;-75
2023/12/13 01:43:40;;;;;;;1.13;0.77;;;8.80;99.90;;;;;;5022201;28;20056;-76
2023/12/13 01:46:07;;;;;;;0.70;0.55;;;8.70;1.00;;;;;;5021486;28;20062;-75
2023/12/13 01:48:35;;;;;;;1.27;0.70;;;8.80;1.00;;;;;;5005567;28;20045;-75
2023/12/13 01:51:02;;;;;;;0.50;0.50;;;8.70;1.00;;;;;;5022560;28;20260;-75
2023/12/13 01:53:29;;;;;;;1.38;0.85;;;8.70;1.00;;;;;;5013431;28;20227;-76
2023/12/13 01:55:56;;;;;;;0.85;0.57;;;8.70;99.90;;;;;;5009793;28;20041;-76
2023/12/13 01:58:23;;;;;;;0.50;0.50;;;8.70;99.90;;;;;;4989840;28;20056;-76
2023/12/13 02:00:50;;;;;;;0.60;0.50;;;8.80;9.70;;;;;;5022664;28;20049;-75
2023/12/13 02:03:17;;;;;;;1.40;0.90;;;8.70;1.00;;;;;;5009512;28;20129;-76
2023/12/13 02:05:44;;;;;;;0.70;0.70;;;8.80;1.00;;;;;;5005820;28;20225;-76
2023/12/13 02:08:11;;;;;;;0.57;0.52;;;8.80;1.00;;;;;;5021461;28;20130;-75
2023/12/13 02:10:38;;;;;;;1.50;0.80;;;8.80;1.00;;;;;;5022468;28;20061;-76
2023/12/13 02:13:05;;;;;;;0.68;0.63;;;8.80;1.00;;;;;;5000031;28;20161;-76
2023/12/13 02:15:35;;;;;;;1.23;0.98;;;8.80;1.00;;;;;;5041069;28;20053;-76
2023/12/13 02:18:02;;;;;;;1.63;0.90;;;8.80;26.80;;;;;;5022514;28;20041;-76
2023/12/13 02:20:29;;;;;;;1.10;0.88;;;8.80;99.90;;;;;;5022709;28;20057;-76
2023/12/13 02:22:56;;;;;;;0.82;0.80;;;8.80;95.50;;;;;;5023058;28;20049;-76
2023/12/13 02:25:33;;;;;;;1.00;0.65;;;8.80;99.90;;;;;;5011371;28;20515;-76
2023/12/13 02:28:00;;;;;;;1.10;0.80;;;8.80;99.90;;;;;;5020478;28;20487;-76
2023/12/13 02:30:27;;;;;;;3.22;1.10;;;8.80;99.90;;;;;;5019945;28;20623;-75
2023/12/13 02:32:54;;;;;;;1.92;1.38;;;8.80;99.90;;;;;;5012086;28;20575;-76
2023/12/13 02:35:21;;;;;;;2.10;1.20;;;8.80;99.90;;;;;;5020461;28;20064;-77
2023/12/13 02:37:49;;;;;;;2.47;1.50;;;8.80;99.90;;;;;;5021651;28;20104;-76
2023/12/13 02:40:17;;;;;;;1.58;1.02;;;8.80;99.90;;;;;;5023512;28;20252;-75
2023/12/13 02:42:44;;;;;;;2.70;1.42;;;8.80;99.90;;;;;;5025276;28;20080;-75
2023/12/13 02:45:12;;;;;;;2.03;1.45;;;8.80;99.90;;;;;;5019972;28;20438;-75
2023/12/13 02:47:42;;;;;;;2.55;1.42;;;8.90;99.90;;;;;;5003967;28;20053;-75
2023/12/13 02:50:12;;;;;;;1.50;1.20;;;8.90;99.90;;;;;;5019487;28;20046;-75
2023/12/13 02:52:39;;;;;;;2.08;1.30;;;8.90;99.90;;;;;;5020280;28;20050;-75
2023/12/13 02:55:09;;;;;;;1.90;1.35;;;8.90;99.90;;;;;;5021937;28;20529;-75
2023/12/13 02:57:36;;;;;;;1.15;1.05;;;8.90;1.00;;;;;;5027885;28;20076;-75
2023/12/13 03:00:04;;;;;;;2.60;1.90;;;8.90;1.60;;;;;;5027116;28;20045;-75
2023/12/13 03:02:31;;;;;;;3.63;1.95;;;8.80;65.90;;;;;;5022539;28;20139;-75
2023/12/13 03:05:00;;;;;;;2.35;1.60;;;8.80;99.90;;;;;;5025471;28;20042;-75
2023/12/13 03:07:28;;;;;;;1.80;1.67;;;8.80;99.90;;;;;;5010027;28;20463;-75
2023/12/13 03:09:54;;;;;;;2.42;2.03;;;8.80;99.90;;;;;;5010097;28;20126;-75
2023/12/13 03:12:21;;;;;;;2.72;2.17;;;8.80;1.00;;;;;;5024199;28;20053;-75
2023/12/13 03:14:48;;;;;;;2.67;2.13;;;8.80;1.00;;;;;;5022368;28;20459;-75
2023/12/13 03:17:15;;;;;;;2.53;2.25;;;8.80;1.00;;;;;;5027409;28;20050;-75
2023/12/13 03:19:42;;;;;;;2.08;1.88;;;8.80;1.00;;;;;;5025510;28;20048;-75
2023/12/13 03:22:09;;;;;;;2.85;2.30;;;8.80;1.00;;;;;;5020985;28;20492;-74
2023/12/13 03:24:35;;;;;;;2.90;2.55;;;8.80;1.00;;;;;;5021061;28;20049;-74
2023/12/13 03:27:03;;;;;;;3.92;2.80;;;8.80;12.00;;;;;;5027345;28;20540;-74
2023/12/13 03:29:29;;;;;;;3.33;2.78;;;8.80;76.70;;;;;;5024446;28;20099;-74
2023/12/13 03:31:56;;;;;;;4.07;3.30;;;8.80;99.90;;;;;;5027802;28;20148;-74
2023/12/13 03:34:23;;;;;;;4.22;3.20;;;8.70;99.90;;;;;;5023053;28;20202;-75
2023/12/13 03:36:50;;;;;;;3.85;3.20;;;8.70;99.90;;;;;;5024140;28;20046;-75
2023/12/13 03:39:16;;;;;;;4.75;3.67;;;8.70;99.90;;;;;;5006684;28;20652;-75
2023/12/13 03:41:43;;;;;;;4.45;3.28;;;8.70;99.90;;;;;;5016996;28;20077;-75
2023/12/13 03:44:10;;;;;;;3.65;3.03;;;8.70;99.90;;;;;;5019732;28;20678;-75
2023/12/13 03:46:37;;;;;;;5.35;3.92;;;8.70;99.90;;;;;;5021051;28;20054;-75
2023/12/13 03:49:07;;;;;;;4.90;3.63;;;8.70;8.60;;;;;;5006954;28;20057;-75
2023/12/13 03:51:34;;;;;;;4.95;4.38;;;8.70;25.60;;;;;;5015084;28;20100;-75
2023/12/13 03:54:01;;;;;;;5.20;4.18;;;8.70;1.00;;;;;;5019156;28;20137;-75
2023/12/13 03:56:31;;;;;;;7.50;5.18;;;8.70;1.00;;;;;;5026714;28;20072;-75
2023/12/13 03:58:57;;;;;;;6.00;4.50;;;8.70;1.00;;;;;;5028251;28;20049;-75
2023/12/13 04:01:24;;;;;;;5.63;4.68;;;8.70;1.00;;;;;;5004872;28;20971;-75
2023/12/13 04:03:51;;;;;;;6.38;5.30;;;8.70;1.00;;;;;;5018647;28;20538;-75
2023/12/13 04:06:18;;;;;;;6.60;4.85;;;8.70;1.00;;;;;;5026572;28;20045;-75
2023/12/13 04:08:45;;;;;;;8.82;5.57;;;8.70;1.00;;;;;;5017434;28;20498;-74
2023/12/13 04:11:12;;;;;;;6.07;5.00;;;8.70;99.90;;;;;;5023026;28;20103;-75
2023/12/13 04:13:39;;;;;;;7.22;5.28;;;8.70;99.90;;;;;;5023704;28;20049;-75
2023/12/13 04:16:06;;;;;;;8.30;5.47;;;8.70;99.90;;;;;;5022334;28;20144;-76
2023/12/13 04:18:33;;;;;;;8.57;5.68;;;8.70;99.90;;;;;;5027098;28;20041;-76
2023/12/13 04:21:00;;;;;;;8.13;6.53;;;8.70;1.00;;;;;;5025166;28;20084;-76
2023/12/13 04:23:27;;;;;;;8.38;5.63;;;8.60;99.90;;;;;;5026302;28;20577;-75
2023/12/13 04:25:53;;;;;;;9.63;6.93;;;8.70;99.90;;;;;;5023380;28;20394;-76
2023/12/13 04:28:20;;;;;;;10.77;7.40;;;8.70;99.90;;;;;;5026185;28;20092;-76
2023/12/13 04:30:47;;;;;;;8.98;6.20;;;8.60;99.90;;;;;;4998655;28;20045;-76
2023/12/13 04:33:18;;;;;;;9.75;7.00;;;8.60;99.90;;;;;;5018773;28;20053;-75
2023/12/13 04:35:46;;;;;;;11.80;5.40;;;8.60;99.90;;;;;;5018660;28;20510;-76
2023/12/13 04:38:13;;;;;;;7.43;6.03;;;8.60;99.90;;;;;;5026160;28;20054;-76
2023/12/13 04:40:40;;;;;;;7.20;5.00;;;8.60;58.80;;;;;;5002128;28;20046;-75
2023/12/13 04:43:07;;;;;;;8.27;5.72;;;8.60;1.00;;;;;;5015818;28;20084;-76
2023/12/13 04:45:33;;;;;;;7.68;5.82;;;8.60;99.90;;;;;;5024160;28;20510;-75
2023/12/13 04:48:00;;;;;;;6.63;5.53;;;8.60;99.90;;;;;;5017492;28;20042;-75
2023/12/13 04:50:27;;;;;;;8.80;5.95;;;8.60;99.90;;;;;;5013504;28;20137;-75
2023/12/13 04:52:54;;;;;;;6.47;4.78;;;8.60;99.90;;;;;;5021789;28;20052;-75
2023/12/13 04:55:21;;;;;;;7.00;5.45;;;8.60;99.90;;;;;;5018766;28;20045;-75
2023/12/13 04:57:48;;;;;;;6.88;5.75;;;8.60;99.90;;;;;;5022556;28;20179;-75
2023/12/13 05:00:15;;;;;;;7.28;5.55;;;8.70;99.90;;;;;;5018350;28;20131;-75
2023/12/13 05:02:42;;;;;;;7.43;5.45;;;8.70;27.10;;;;;;5022536;28;20084;-75
2023/12/13 05:05:09;;;;;;;6.30;5.03;;;8.70;1.00;;;;;;5008778;28;20495;-75
2023/12/13 05:07:36;;;;;;;5.03;4.03;;;8.70;12.90;;;;;;5025637;28;20088;-75
2023/12/13 05:10:04;;;;;;;5.85;4.80;;;8.70;1.00;;;;;;5004685;28;20057;-76
2023/12/13 05:12:30;;;;;;;5.90;4.55;;;8.70;99.90;;;;;;5008245;28;20352;-75
2023/12/13 05:14:57;;;;;;;8.10;6.20;;;8.70;99.90;;;;;;5006270;28;20061;-75
2023/12/13 05:17:24;;;;;;;7.47;5.38;;;8.70;99.90;;;;;;5025064;28;20111;-75
2023/12/13 05:19:51;;;;;;;8.40;6.70;;;8.70;94.60;;;;;;5007797;28;20224;-75
2023/12/13 05:22:21;;;;;;;7.50;6.38;;;8.70;99.90;;;;;;5021416;28;20096;-75
2023/12/13 05:24:48;;;;;;;9.65;7.28;;;8.70;99.90;;;;;;5018255;28;20488;-76
2023/12/13 05:27:15;;;;;;;8.93;6.60;;;8.70;1.00;;;;;;5011516;28;20049;-75
2023/12/13 05:29:45;;;;;;;6.60;5.25;;;8.70;1.00;;;;;;5005709;28;20052;-75
2023/12/13 05:32:12;;;;;;;6.10;5.22;;;8.70;1.00;;;;;;5007242;28;20068;-75
2023/12/13 05:34:39;;;;;;;6.22;4.95;;;8.70;99.90;;;;;;5014930;28;20049;-76
2023/12/13 05:37:05;;;;;;;6.75;5.47;;;8.70;1.00;;;;;;5004269;28;20054;-75
2023/12/13 05:39:33;;;;;;;6.35;4.82;;;8.70;1.00;;;;;;5010808;28;20054;-76
2023/12/13 05:42:00;;;;;;;6.13;4.70;;;8.70;1.00;;;;;;5019701;28;20053;-75
2023/12/13 05:44:27;;;;;;;6.57;5.50;;;8.80;99.90;;;;;;4985301;28;20655;-75
2023/12/13 05:46:54;;;;;;;7.65;5.75;;;8.80;99.90;;;;;;5008198;28;20421;-75
2023/12/13 05:49:22;;;;;;;6.45;5.45;;;8.70;99.90;;;;;;5000387;28;20065;-76
2023/12/13 05:51:49;;;;;;;7.90;5.80;;;8.70;88.10;;;;;;5021135;28;20120;-75
2023/12/13 05:54:16;;;;;;;7.63;5.53;;;8.70;1.00;;;;;;5024718;28;20060;-75
2023/12/13 05:56:44;;;;;;;7.95;5.30;;;8.70;1.00;;;;;;5019891;28;20546;-75
2023/12/13 05:59:11;;;;;;;6.15;4.18;;;8.70;1.00;;;;;;5012091;28;20053;-75
2023/12/13 06:01:38;;;;;;;6.07;4.20;;;8.70;77.80;;;;;;5017693;28;20053;-75
2023/12/13 06:04:05;;;;;;;5.53;3.88;;;8.70;59.90;;;;;;5006106;28;20066;-76
2023/12/13 06:06:32;;;;;;;5.10;4.10;;;8.70;94.00;;;;;;5007888;28;20534;-76
2023/12/13 06:08:59;;;;;;;5.82;3.60;;;8.70;68.10;;;;;;5018502;28;20053;-76
2023/12/13 06:11:27;;;;;;;4.88;4.18;;;8.70;86.20;;;;;;5011829;28;20050;-76
2023/12/13 06:13:55;;;;;;;5.75;4.68;;;8.70;48.20;;;;;;5008709;28;20049;-76
2023/12/13 06:16:21;;;;;;;6.68;4.80;;;8.70;87.20;;;;;;5013904;28;20057;-76
2023/12/13 06:18:48;;;;;;;6.38;4.47;;;8.60;99.90;;;;;;5018887;28;20060;-76
2023/12/13 06:21:15;;;;;;;6.47;5.10;;;8.60;1.00;;;;;;5019564;28;20056;-76
2023/12/13 06:23:42;;;;;;;7.53;5.47;;;8.60;1.00;;;;;;5019053;28;20107;-76
2023/12/13 06:26:08;;;;;;;6.28;4.68;;;8.60;99.90;;;;;;5013055;28;20115;-75
2023/12/13 06:28:35;;;;;;;8.35;6.10;;;8.50;1.00;;;;;;4986855;28;20053;-75
2023/12/13 06:31:02;;;;;;;6.85;5.25;;;8.50;99.90;;;;;;5015868;28;20045;-75
2023/12/13 06:33:29;;;;;;;5.85;4.47;;;8.40;99.90;;;;;;5019213;28;20411;-76
2023/12/13 06:35:56;;;;;;;6.20;4.60;;;8.40;1.00;;;;;;4985975;28;20065;-75
2023/12/13 06:38:23;;;;;;;5.72;4.45;;;8.40;1.00;;;;;;5009448;28;20076;-75
2023/12/13 06:40:50;;;;;;;7.75;4.70;;;8.40;99.90;;;;;;5018962;28;20149;-75
2023/12/13 06:43:17;;;;;;;7.38;4.88;;;8.40;99.90;;;;;;5004071;28;20057;-76
2023/12/13 06:45:44;;;;;;;7.70;5.18;;;8.40;99.90;;;;;;5013943;28;20554;-76
2023/12/13 06:48:11;;;;;;;7.72;5.22;;;8.40;21.00;;;;;;5013978;28;20046;-75
2023/12/13 06:50:38;;;;;;;5.55;4.47;;;8.40;1.00;;;;;;5004132;28;20057;-75
2023/12/13 06:53:05;;;;;;;9.88;7.18;;;8.40;99.90;;;;;;5017935;28;20045;-76
2023/12/13 06:55:33;;;;;;;7.82;5.50;;;8.40;99.90;;;;;;5015015;28;20090;-76
2023/12/13 06:58:00;;;;;;;8.77;6.35;;;8.40;99.90;;;;;;5013212;28;20049;-75
2023/12/13 07:00:27;;;;;;;6.45;4.90;;;8.40;99.90;;;;;;5011826;28;20049;-75
2023/12/13 07:02:54;;;;;;;7.05;5.40;;;8.40;99.90;;;;;;5011037;28;20057;-75
2023/12/13 07:05:21;;;;;;;5.70;4.57;;;8.40;99.90;;;;;;5003444;28;20050;-75
2023/12/13 07:07:49;;;;;;;5.43;4.47;;;8.50;99.90;;;;;;4997981;28;20056;-75
2023/12/13 07:10:16;;;;;;;6.00;4.60;;;8.50;99.90;;;;;;5009558;28;20068;-75
2023/12/13 07:12:43;;;;;;;5.35;4.32;;;8.50;1.00;;;;;;5013075;28;20414;-75
2023/12/13 07:15:10;;;;;;;4.50;3.78;;;8.50;99.90;;;;;;4995201;28;20077;-75
2023/12/13 07:17:38;;;;;;;4.50;3.65;;;8.50;99.90;;;;;;5009541;28;20084;-75
2023/12/13 07:20:06;;;;;;;5.55;4.10;;;8.50;99.90;;;;;;5009943;28;20049;-75
2023/12/13 07:22:33;;;;;;;6.22;4.60;;;8.50;1.00;;;;;;5012139;28;20124;-75
2023/12/13 07:25:01;;;;;;;5.60;3.85;;;8.50;1.00;;;;;;5016498;28;20052;-75
2023/12/13 07:27:27;;;;;;;4.93;3.45;;;8.50;1.00;;;;;;4993671;28;20553;-76
2023/12/13 07:29:54;;;;;;;6.18;4.22;;;8.50;1.00;;;;;;5012277;28;20315;-75
2023/12/13 07:32:21;;;;;;;4.55;3.50;;;8.50;99.90;;;;;;5014383;28;20081;-75
2023/12/13 07:34:48;;;;;;;3.70;2.75;;;8.50;99.90;;;;;;5003069;28;20100;-75
2023/12/13 07:37:16;;;;;;;3.13;2.38;;;8.50;99.90;;;;;;5012288;28;20045;-76
2023/12/13 07:39:43;;;;;;;3.63;2.30;;;8.60;99.90;;;;;;5011025;28;20128;-76
2023/12/13 07:42:10;;;;;;;4.03;2.58;;;8.60;99.90;;;;;;5012655;28;20412;-76
2023/12/13 07:44:36;;;;;;;5.53;3.38;;;8.60;99.90;;;;;;5018081;28;20049;-76
2023/12/13 07:47:03;;;;;;;4.68;3.22;;;8.60;99.90;;;;;;5001552;28;20046;-75
2023/12/13 07:49:30;;;;;;;5.25;3.85;;;8.60;99.90;;;;;;5019291;28;20060;-76
2023/12/13 07:51:58;;;;;;;4.38;2.85;;;8.50;99.90;;;;;;5013956;28;20053;-76
2023/12/13 07:54:24;;;;;;;4.25;3.00;;;8.50;99.90;;;;;;5013145;28;20042;-75
2023/12/13 07:56:53;;;;;;;2.90;2.38;;;8.50;99.90;;;;;;5014984;28;20073;-76
2023/12/13 07:59:20;;;;;;;3.58;2.70;;;8.50;99.90;;;;;;5014326;28;20191;-76
2023/12/13 08:01:48;;;;;;;4.15;3.03;;;8.50;99.90;;;;;;5014847;28;20060;-76
2023/12/13 08:04:15;;;;;;;3.38;2.88;;;8.50;99.90;;;;;;5012858;28;20054;-76
2023/12/13 08:06:42;;;;;;;3.72;2.42;;;8.50;99.90;;;;;;5010332;28;20056;-76
2023/12/13 08:09:09;;;;;;;3.45;2.30;;;8.50;99.90;;;;;;5016154;28;20053;-77
2023/12/13 08:11:37;;;;;;;3.60;2.47;;;8.50;99.90;;;;;;5018293;28;20553;-75
2023/12/13 08:14:04;;;;;;;4.10;3.03;;;8.50;99.90;;;;;;4999171;28;20658;-75
2023/12/13 08:16:31;;;;;;;3.97;2.88;;;8.50;32.50;;;;;;5014049;28;20053;-76
2023/12/13 08:18:58;;;;;;;4.28;2.95;;;8.50;50.40;;;;;;5013144;28;20037;-76
2023/12/13 08:21:25;;;;;;;4.07;3.20;;;8.50;99.90;;;;;;5016011;28;20049;-76
2023/12/13 08:23:52;;;;;;;3.65;2.88;;;8.50;99.90;;;;;;5003116;28;20048;-76
2023/12/13 08:26:20;;;;;;;3.88;2.92;;;8.50;99.90;;;;;;5012312;28;20123;-75
2023/12/13 08:28:47;;;;;;;5.55;3.35;;;8.50;98.10;;;;;;5017162;28;20081;-74
2023/12/13 08:31:24;;;;;;;4.00;2.75;;;8.50;88.60;;;;;;5014738;28;20056;-75
2023/12/13 08:33:53;;;;;;;3.95;2.42;;;8.50;92.50;;;;;;5011524;28;20089;-75
2023/12/13 08:36:22;;;;;;;3.30;2.65;;;8.50;93.50;;;;;;5016535;28;20049;-74
2023/12/13 08:38:50;;;;;;;2.72;2.08;;;8.50;65.90;;;;;;5014147;28;20049;-75
2023/12/13 08:41:17;;;;;;;2.33;1.73;;;8.40;97.30;;;;;;4998076;28;20057;-76
2023/12/13 08:43:45;;;;;;;3.42;1.70;;;8.50;99.90;;;;;;5016242;28;20050;-75
2023/12/13 08:46:12;;;;;;;2.90;1.60;;;8.40;99.90;;;;;;5013585;28;20164;-75
2023/12/13 08:48:39;;;;;;;3.00;1.65;;;8.50;99.90;;;;;;5014807;28;20413;-75
2023/12/13 08:51:06;;;;;;;2.58;1.67;;;8.40;99.90;;;;;;5011015;28;20053;-75
2023/12/13 08:53:32;;;;;;;2.92;1.90;;;8.50;99.90;;;;;;4995496;28;20527;-76
2023/12/13 08:55:59;;;;;;;2.20;1.30;;;8.40;99.90;;;;;;5011257;28;20054;-76
2023/12/13 08:58:30;;;;;;;2.45;1.80;;;8.40;99.90;;;;;;5013151;28;20053;-78
2023/12/13 09:00:58;;;;;;;2.05;1.52;;;8.40;99.90;;;;;;5008881;28;20053;-75
2023/12/13 09:03:25;;;;;;;2.53;2.08;;;8.40;99.90;;;;;;5016070;28;20050;-75
2023/12/13 09:05:53;;;;;;;2.47;1.75;;;8.40;99.90;;;;;;5013504;28;20593;-73
2023/12/13 09:08:20;;;;;;;2.40;1.80;;;8.40;99.90;;;;;;5016608;28;20128;-75
2023/12/13 09:10:48;;;;;;;5.38;2.33;;;8.40;99.90;;;;;;5015106;28;20061;-74
2023/12/13 09:13:15;;;;;;;2.63;1.92;;;8.40;99.90;;;;;;5014872;28;20060;-76
2023/12/13 09:15:45;;;;;;;1.80;1.40;;;8.40;99.90;;;;;;5015214;28;20104;-76
2023/12/13 09:18:12;;;;;;;2.88;2.25;;;8.40;99.90;;;;;;5015426;28;20053;-75
2023/12/13 09:20:40;;;;;;;3.08;1.77;;;8.50;99.90;;;;;;5018885;28;20205;-76
2023/12/13 09:23:09;;;;;;;2.63;1.80;;;8.50;99.90;;;;;;5016249;28;20052;-76
2023/12/13 09:25:36;;;;;;;2.38;2.08;;;8.50;99.90;;;;;;5012145;28;20045;-75
2023/12/13 09:28:03;;;;;;;2.28;1.60;;;8.50;99.90;;;;;;5014655;28;20120;-77
2023/12/13 09:30:30;;;;;;;2.38;1.70;;;8.50;1.00;;;;;;4995390;28;20454;-75
2023/12/13 09:32:57;;;;;;;2.38;1.70;;;8.50;1.00;;;;;;4999823;28;20045;-75
2023/12/13 09:35:24;;;;;;;3.00;2.30;;;8.50;23.70;;;;;;5000651;28;20049;-75
2023/12/13 09:37:52;;;;;;;2.97;2.08;;;8.40;99.90;;;;;;5013334;28;20045;-74
2023/12/13 09:40:19;;;;;;;4.43;2.35;;;8.40;1.00;;;;;;4998675;28;20054;-75
2023/12/13 09:42:46;;;;;;;3.60;2.20;;;8.40;99.90;;;;;;5011223;28;20137;-75
2023/12/13 09:45:20;;;;;;;2.80;2.20;;;8.30;99.90;;;;;;5014666;28;20053;-76
2023/12/13 09:47:49;;;;;;;2.97;2.10;;;8.30;99.90;;;;;;5012279;28;20037;-76
2023/12/13 09:50:17;;;;;;;3.80;2.58;;;8.30;99.90;;;;;;5016340;28;20106;-76
2023/12/13 09:52:44;;;;;;;2.50;2.30;;;8.30;99.90;;;;;;5011394;28;20711;-76
2023/12/13 09:55:11;;;;;;;3.53;2.47;;;8.30;99.90;;;;;;5004489;28;20525;-77
2023/12/13 09:57:38;;;;;;;3.13;2.45;;;8.30;99.90;;;;;;5021056;28;20050;-76
2023/12/13 10:00:12;;;;;;;3.03;2.42;;;8.40;99.90;;;;;;5003293;28;20152;-76
2023/12/13 10:02:39;;;;;;;2.45;2.25;;;8.40;99.90;;;;;;5006199;28;20053;-76
2023/12/13 10:05:08;;;;;;;2.97;2.55;;;8.50;1.00;;;;;;5023436;28;20049;-76
2023/12/13 10:07:35;;;;;;;3.10;2.20;;;8.50;6.00;;;;;;5001843;28;20125;-76
2023/12/13 10:10:03;;;;;;;4.30;2.30;;;8.50;99.90;;;;;;5013146;28;20065;-76
2023/12/13 10:12:29;;;;;;;2.53;2.08;;;8.50;99.90;;;;;;5008068;28;20124;-76
2023/12/13 10:14:56;;;;;;;2.40;2.17;;;8.50;99.90;;;;;;5006855;28;20057;-76
2023/12/13 10:17:23;;;;;;;2.63;2.10;;;8.50;99.90;;;;;;5018572;28;20145;-76
2023/12/13 10:19:50;;;;;;;2.55;1.85;;;8.50;99.90;;;;;;4999022;28;20056;-76
2023/12/13 10:22:17;;;;;;;2.40;1.90;;;8.50;99.90;;;;;;5012117;28;20472;-76
2023/12/13 10:24:45;;;;;;;1.73;1.58;;;8.50;99.90;;;;;;5014157;28;20395;-76
2023/12/13 10:27:13;;;;;;;1.90;1.60;;;8.60;4.20;;;;;;5002954;28;20050;-76
2023/12/13 10:29:40;;;;;;;2.05;1.70;;;8.60;14.70;;;;;;5016598;28;20057;-76
2023/12/13 10:32:07;;;;;;;3.15;1.25;;;8.70;99.90;;;;;;4998650;28;20046;-76
2023/12/13 10:34:34;;;;;;;2.08;1.40;;;8.80;99.90;;;;;;5015618;28;20056;-76
2023/12/13 10:37:01;;;;;;;2.00;1.70;;;8.80;80.60;;;;;;4999058;28;20068;-76
2023/12/13 10:39:28;;;;;;;2.03;1.20;;;8.80;68.90;;;;;;4999447;28;20695;-76
2023/12/13 10:41:55;;;;;;;1.95;1.10;;;8.80;47.70;;;;;;4991027;28;20099;-76
2023/12/13 10:44:23;;;;;;;1.80;0.98;;;8.80;67.20;;;;;;5021554;28;20136;-76
2023/12/13 10:46:56;;;;;;;2.65;1.25;;;8.80;98.30;;;;;;5013180;28;20177;-76
2023/12/13 10:49:24;;;;;;;4.60;1.38;;;8.70;99.90;;;;;;5003986;28;20046;-76
2023/12/13 10:51:51;;;;;;;2.83;0.90;;;8.70;99.90;;;;;;4998873;28;20056;-76
2023/12/13 10:54:18;;;;;;;1.50;1.15;;;8.60;99.90;;;;;;5002902;28;20050;-76
2023/12/13 10:56:45;;;;;;;1.55;1.00;;;8.40;99.90;;;;;;5000201;28;20046;-75
2023/12/13 10:59:12;;;;;;;1.05;0.80;;;8.30;1.00;;;;;;5001819;28;20045;-76
2023/12/13 11:01:39;;;;;;;2.15;1.27;;;8.30;99.90;;;;;;5004906;28;20479;-76
2023/12/13 11:04:17;;;;;;;2.25;1.40;;;8.30;99.90;;;;;;4969199;28;20057;-76
2023/12/13 11:06:47;;;;;;;2.35;1.10;;;8.30;99.90;;;;;;5015874;28;20064;-75
2023/12/13 11:09:20;;;;;;;2.95;0.95;;;8.30;99.90;;;;;;5009899;28;20061;-76
2023/12/13 11:11:48;;;;;;;2.53;0.70;;;8.20;1.00;;;;;;5002066;28;20049;-75
2023/12/13 11:14:16;;;;;;;2.22;1.23;;;8.20;1.00;;;;;;5015238;28;20049;-76
2023/12/13 11:16:47;;;;;;;2.28;0.85;;;8.20;1.00;;;;;;5013341;28;20136;-76
2023/12/13 11:19:18;;;;;;;1.23;0.40;;;8.20;99.90;;;;;;4997210;28;20046;-76
2023/12/13 11:21:46;;;;;;;0.60;0.50;;;8.30;99.90;;;;;;5016762;28;20057;-75
2023/12/13 11:24:15;;;;;;;0.47;0.40;;;8.30;99.90;;;;;;4981740;28;20050;-75
2023/12/13 11:26:45;;;;;;;0.50;0.30;;;8.30;1.00;;;;;;5014457;28;20184;-76
2023/12/13 11:29:13;;;;;;;1.73;0.50;;;8.40;99.90;;;;;;5013176;28;20050;-76
2023/12/13 11:32:00;;;;;;;0.40;0.35;;;8.40;99.90;;;;;;5016859;28;20053;-76
2023/12/13 11:34:44;;;;;;;0.90;0.52;;;8.30;99.90;;;;;;4996721;28;20108;-76
2023/12/13 11:37:12;;;;;;;1.23;0.45;;;8.30;99.90;;;;;;4996354;28;20535;-76
2023/12/13 11:39:40;;;;;;;1.50;0.50;;;8.30;99.90;;;;;;5019476;28;20049;-76
2023/12/13 11:42:08;;;;;;;0.93;0.57;;;8.40;99.90;;;;;;5016566;28;20045;-76
2023/12/13 11:44:37;;;;;;;0.60;0.40;;;8.30;99.90;;;;;;5002347;28;20084;-76
2023/12/13 11:47:05;;;;;;;0.70;0.30;;;8.30;99.90;;;;;;5001216;28;20081;-76
2023/12/13 11:49:33;;;;;;;0.40;0.40;;;8.30;99.90;;;;;;5017528;28;20510;-76
2023/12/13 11:52:01;;;;;;;0.75;0.68;;;8.30;99.90;;;;;;5023449;28;20054;-76
2023/12/13 11:54:28;;;;;;;1.05;0.40;;;8.30;99.90;;;;;;5016181;28;20135;-77
2023/12/13 11:56:55;;;;;;;1.10;0.35;;;8.30;99.90;;;;;;5024590;28;20049;-77
2023/12/13 11:59:23;;;;;;;1.33;0.65;;;8.30;99.90;;;;;;5024055;28;20438;-76
2023/12/13 12:01:49;;;;;;;0.85;0.50;;;8.30;99.90;;;;;;5023272;28;20571;-76
2023/12/13 12:04:20;;;;;;;1.27;0.50;;;8.30;99.90;;;;;;5012214;28;20061;-75
2023/12/13 12:06:48;;;;;;;1.42;0.50;;;8.30;99.90;;;;;;5021327;28;20063;-75
2023/12/13 12:09:21;;;;;;;1.23;0.50;;;8.20;99.90;;;;;;5023891;28;20503;-74
2023/12/13 12:11:54;;;;;;;0.60;0.57;;;8.20;99.90;;;;;;5021146;28;20388;-74
2023/12/13 12:14:28;;;;;;;1.55;0.70;;;8.20;99.90;;;;;;5010033;28;20049;-76
2023/12/13 12:16:54;;;;;;;1.02;0.60;;;8.20;99.90;;;;;;5002941;28;20069;-76
2023/12/13 12:19:22;;;;;;;1.13;0.57;;;8.20;99.90;;;;;;5013183;28;20128;-75
2023/12/13 12:21:50;;;;;;;0.63;0.60;;;8.10;99.90;;;;;;5017106;28;20076;-76
2023/12/13 12:24:17;;;;;;;2.40;0.70;;;8.10;99.90;;;;;;5014263;28;20571;-75
2023/12/13 12:26:44;;;;;;;1.35;0.70;;;8.10;99.90;;;;;;5010889;28;20089;-75
2023/12/13 12:29:11;;;;;;;1.50;0.60;;;8.00;99.90;;;;;;4999370;28;20049;-76
2023/12/13 12:31:38;;;;;;;0.98;0.60;;;8.00;99.90;;;;;;5016648;28;20060;-75
2023/12/13 12:34:05;;;;;;;0.95;0.55;;;8.00;99.90;;;;;;5017082;28;20074;-76
2023/12/13 12:36:33;;;;;;;1.08;0.60;;;8.00;99.90;;;;;;5015957;28;20069;-74
2023/12/13 12:38:59;;;;;;;2.08;0.50;;;8.00;99.90;;;;;;5019312;28;20045;-75
2023/12/13 12:41:28;;;;;;;1.40;0.50;;;7.90;99.90;;;;;;5000408;28;20531;-75
2023/12/13 12:43:55;;;;;;;0.73;0.57;;;7.90;99.90;;;;;;5016275;28;20050;-75
2023/12/13 12:46:22;;;;;;;2.15;0.73;;;8.00;99.90;;;;;;5013053;28;20128;-76
2023/12/13 12:48:49;;;;;;;1.10;1.00;;;7.90;99.90;;;;;;5019721;28;20041;-76
2023/12/13 12:51:16;;;;;;;1.65;0.47;;;7.80;99.90;;;;;;5019758;28;20838;-75
2023/12/13 12:53:43;;;;;;;1.75;0.95;;;7.80;99.90;;;;;;5015497;28;20629;-75
2023/12/13 12:56:12;;;;;;;2.50;0.60;;;7.70;1.00;;;;;;5014048;28;20049;-74
2023/12/13 12:58:39;;;;;;;2.08;0.70;;;7.60;1.00;;;;;;4999774;28;20104;-74
2023/12/13 13:01:06;;;;;;;0.90;0.60;;;7.60;48.20;;;;;;4999551;28;20045;-74